createdAt,value
2023-03-21T00:00:56.587Z,42.42
2023-03-21T00:01:54.163Z,42.63
2023-03-21T00:02:51.156Z,42.97
2023-03-21T00:03:49.423Z,42.34
2023-03-21T00:04:52.278Z,42.13
2023-03-21T00:05:53.387Z,41.80
2023-03-21T00:06:50.704Z,42.00
2023-03-21T00:07:47.756Z,41.57
2023-03-21T00:08:44.823Z,42.94
2023-03-21T00:09:41.456Z,41.81
2023-03-21T00:10:41.142Z,42.65
2023-03-21T00:11:40.667Z,42.48
2023-03-21T00:12:37.772Z,41.69
2023-03-21T00:13:38.517Z,42.05
2023-03-21T00:14:38.017Z,41.36
2023-03-21T00:15:44.367Z,41.40
2023-03-21T00:16:51.862Z,41.70
2023-03-21T00:17:50.788Z,41.60
2023-03-21T00:18:52.325Z,41.50
2023-03-21T00:19:50.503Z,41.71
2023-03-21T00:21:35.558Z,42.03
2023-03-21T00:22:18.700Z,41.63
2023-03-21T00:23:15.907Z,41.68
2023-03-21T00:24:12.806Z,41.80
2023-03-21T00:25:10.633Z,42.14
2023-03-21T00:26:10.124Z,42.41
2023-03-21T00:27:43.002Z,41.65
2023-03-21T00:28:24.613Z,41.66
2023-03-21T00:29:21.287Z,41.90
2023-03-21T00:30:18.021Z,41.51
2023-03-21T00:31:14.866Z,41.46
2023-03-21T00:32:11.549Z,42.15
2023-03-21T00:33:21.761Z,42.94
2023-03-21T00:34:26.799Z,43.49
2023-03-21T00:35:58.003Z,42.76
2023-03-21T00:36:50.047Z,41.98
2023-03-21T00:37:46.910Z,42.37
2023-03-21T00:38:43.549Z,41.69
2023-03-21T00:39:40.550Z,41.59
2023-03-21T00:40:43.750Z,41.95
2023-03-21T00:41:43.904Z,42.60
2023-03-21T00:42:40.561Z,42.21
2023-03-21T00:43:37.518Z,43.48
2023-03-21T00:44:36.964Z,43.40
2023-03-21T00:45:33.565Z,43.20
2023-03-21T00:46:42.766Z,44.03
2023-03-21T00:47:43.776Z,44.17
2023-03-21T00:48:40.566Z,44.97
2023-03-21T00:49:38.590Z,45.63
2023-03-21T00:50:35.231Z,45.30
2023-03-21T00:51:32.051Z,45.55
2023-03-21T00:52:40.244Z,45.64
2023-03-21T00:53:37.286Z,45.52
2023-03-21T00:54:35.234Z,45.15
2023-03-21T00:55:32.084Z,44.96
2023-03-21T00:56:28.748Z,45.24
2023-03-21T00:57:38.037Z,44.35
2023-03-21T00:58:35.805Z,44.58
2023-03-21T00:59:32.422Z,43.78
2023-03-21T01:00:29.596Z,43.46
2023-03-21T01:01:31.877Z,43.43
2023-03-21T01:02:28.657Z,43.39
2023-03-21T01:03:26.756Z,43.44
2023-03-21T01:04:26.819Z,43.62
2023-03-21T01:05:44.325Z,44.88
2023-03-21T01:06:43.193Z,45.48
2023-03-21T01:07:39.854Z,45.64
2023-03-21T01:08:55.006Z,45.13
2023-03-21T01:09:51.635Z,44.93
2023-03-21T01:10:50.104Z,45.28
2023-03-21T01:11:46.879Z,46.00
2023-03-21T01:12:43.546Z,46.50
2023-03-21T01:13:47.453Z,46.51
2023-03-21T01:14:50.029Z,46.00
2023-03-21T01:15:49.764Z,45.95
2023-03-21T01:16:46.588Z,45.66
2023-03-21T01:17:43.186Z,45.77
2023-03-21T01:18:41.653Z,45.90
2023-03-21T01:19:51.234Z,45.66
2023-03-21T01:20:49.393Z,46.30
2023-03-21T01:21:46.063Z,46.08
2023-03-21T01:22:42.727Z,46.29
2023-03-21T01:23:41.440Z,45.82
2023-03-21T01:24:46.840Z,46.15
2023-03-21T01:25:50.434Z,45.44
2023-03-21T01:26:47.115Z,45.43
2023-03-21T01:27:43.718Z,45.14
2023-03-21T01:28:42.380Z,45.43
2023-03-21T01:29:39.010Z,45.07
2023-03-21T01:30:41.664Z,44.75
2023-03-21T01:31:39.215Z,45.41
2023-03-21T01:32:35.888Z,45.19
2023-03-21T01:33:33.392Z,44.91
2023-03-21T01:34:30.048Z,44.77
2023-03-21T01:35:27.021Z,45.06
2023-03-21T01:36:27.175Z,44.87
2023-03-21T01:37:26.408Z,44.50
2023-03-21T01:38:23.541Z,44.18
2023-03-21T01:39:20.230Z,43.80
2023-03-21T01:40:22.535Z,44.28
2023-03-21T01:41:42.060Z,44.44
2023-03-21T01:42:39.790Z,44.76
2023-03-21T01:43:37.037Z,44.69
2023-03-21T01:44:52.725Z,46.22
2023-03-21T01:46:10.659Z,47.71
2023-03-21T01:47:12.476Z,47.93
2023-03-21T01:48:09.638Z,48.07
2023-03-21T01:49:34.261Z,45.72
2023-03-21T01:50:30.982Z,45.44
2023-03-21T01:51:29.382Z,44.37
2023-03-21T01:52:37.569Z,43.70
2023-03-21T01:53:38.214Z,44.40
2023-03-21T01:54:40.001Z,44.85
2023-03-21T01:55:37.632Z,46.40
2023-03-21T01:56:37.652Z,46.41
2023-03-21T01:57:49.446Z,47.84
2023-03-21T01:58:55.320Z,48.50
2023-03-21T01:59:54.512Z,48.18
2023-03-21T02:00:52.447Z,49.28
2023-03-21T02:01:51.370Z,49.37
2023-03-21T02:02:52.562Z,49.61
2023-03-21T02:03:51.710Z,48.59
2023-03-21T02:04:51.175Z,48.00
2023-03-21T02:06:00.832Z,47.56
2023-03-21T02:07:07.533Z,47.92
2023-03-21T02:08:04.146Z,49.23
2023-03-21T02:09:04.636Z,50.21
2023-03-21T02:10:04.988Z,47.84
2023-03-21T02:11:01.629Z,46.83
2023-03-21T02:11:58.613Z,47.85
2023-03-21T02:12:59.283Z,49.71
2023-03-21T02:14:05.923Z,49.65
2023-03-21T02:15:04.532Z,49.48
2023-03-21T02:16:13.753Z,49.25
2023-03-21T02:17:34.938Z,49.41
2023-03-21T02:18:38.984Z,50.21
2023-03-21T02:19:41.685Z,50.43
2023-03-21T02:21:09.517Z,49.91
2023-03-21T02:22:37.965Z,49.88
2023-03-21T02:24:05.347Z,50.02
2023-03-21T02:25:22.073Z,48.63
2023-03-21T02:27:03.394Z,48.92
2023-03-21T02:28:39.479Z,49.22
2023-03-21T02:29:38.789Z,49.23
2023-03-21T02:31:06.659Z,48.42
2023-03-21T02:32:36.874Z,47.78
2023-03-21T02:34:09.195Z,47.84
2023-03-21T02:35:17.622Z,47.51
2023-03-21T02:36:22.417Z,47.67
2023-03-21T02:38:01.445Z,47.54
2023-03-21T02:39:12.199Z,49.24
2023-03-21T02:40:11.925Z,49.26
2023-03-21T02:41:20.367Z,50.26
2023-03-21T02:42:20.478Z,50.82
2023-03-21T02:43:37.256Z,53.18
2023-03-21T02:44:50.302Z,52.30
2023-03-21T02:46:07.132Z,51.53
2023-03-21T02:47:07.826Z,52.33
2023-03-21T02:48:17.359Z,52.32
2023-03-21T02:49:30.223Z,52.46
2023-03-21T02:50:33.688Z,52.83
2023-03-21T02:51:32.903Z,51.87
2023-03-21T02:52:39.273Z,50.92
2023-03-21T02:53:40.994Z,51.62
2023-03-21T02:54:47.536Z,51.98
2023-03-21T02:55:47.064Z,52.92
2023-03-21T02:56:46.331Z,52.73
2023-03-21T02:57:46.458Z,52.08
2023-03-21T02:58:43.956Z,52.38
2023-03-21T02:59:53.248Z,51.44
2023-03-21T03:00:55.472Z,51.78
2023-03-21T03:01:53.643Z,50.42
2023-03-21T03:03:02.593Z,48.68
2023-03-21T03:04:03.487Z,48.42
2023-03-21T03:05:00.653Z,47.94
2023-03-21T03:06:00.828Z,48.34
2023-03-21T03:07:24.206Z,49.82
2023-03-21T03:08:52.898Z,49.54
2023-03-21T03:10:27.699Z,49.49
2023-03-21T03:11:30.342Z,48.92
2023-03-21T03:12:54.601Z,48.55
2023-03-21T03:13:58.111Z,48.59
2023-03-21T03:15:11.539Z,50.17
2023-03-21T03:16:38.806Z,50.05
2023-03-21T03:18:01.505Z,49.52
2023-03-21T03:19:01.784Z,49.77
2023-03-21T03:20:17.466Z,49.96
2023-03-21T03:21:40.274Z,50.02
2023-03-21T03:23:03.552Z,49.88
2023-03-21T03:24:17.727Z,50.21
2023-03-21T03:25:29.795Z,50.41
2023-03-21T03:26:41.254Z,50.67
2023-03-21T03:27:42.802Z,50.72
2023-03-21T03:28:44.151Z,50.67
2023-03-21T03:29:44.715Z,52.58
2023-03-21T03:30:51.311Z,52.84
2023-03-21T03:32:04.184Z,53.59
2023-03-21T03:33:06.630Z,53.87
2023-03-21T03:34:10.938Z,57.24
2023-03-21T03:35:08.751Z,57.20
2023-03-21T03:36:10.874Z,56.48
2023-03-21T03:37:11.207Z,56.73
2023-03-21T03:38:09.329Z,56.65
2023-03-21T03:39:09.430Z,56.84
2023-03-21T03:40:11.009Z,57.61
2023-03-21T03:41:19.483Z,58.30
2023-03-21T03:42:28.706Z,58.49
2023-03-21T03:43:41.145Z,57.96
2023-03-21T03:44:38.472Z,57.17
2023-03-21T03:45:41.918Z,56.92
2023-03-21T03:46:51.131Z,57.33
2023-03-21T03:48:28.316Z,57.10
2023-03-21T03:49:29.476Z,57.81
2023-03-21T03:50:30.922Z,58.15
2023-03-21T03:51:50.065Z,58.05
2023-03-21T03:52:56.985Z,58.04
2023-03-21T03:54:01.966Z,58.44
2023-03-21T03:54:59.094Z,58.05
2023-03-21T03:55:56.914Z,58.13
2023-03-21T03:56:54.281Z,58.43
2023-03-21T03:57:50.960Z,58.91
2023-03-21T03:58:47.780Z,59.00
2023-03-21T03:59:46.669Z,59.08
2023-03-21T04:00:43.247Z,59.05
2023-03-21T04:01:39.871Z,59.17
2023-03-21T04:02:36.488Z,58.70
2023-03-21T04:03:47.856Z,58.59
2023-03-21T04:04:46.307Z,58.91
2023-03-21T04:05:46.313Z,59.39
2023-03-21T04:06:51.708Z,59.21
2023-03-21T04:07:51.029Z,59.73
2023-03-21T04:08:48.412Z,60.34
2023-03-21T04:09:45.602Z,60.12
2023-03-21T04:10:43.470Z,59.32
2023-03-21T04:11:40.174Z,59.59
2023-03-21T04:12:36.874Z,59.58
2023-03-21T04:13:34.037Z,59.92
2023-03-21T04:14:43.549Z,59.99
2023-03-21T04:15:41.505Z,59.91
2023-03-21T04:16:38.995Z,59.64
2023-03-21T04:17:35.633Z,59.62
2023-03-21T04:18:32.445Z,60.42
2023-03-21T04:19:29.018Z,60.41
2023-03-21T04:20:36.111Z,60.72
2023-03-21T04:21:33.716Z,60.31
2023-03-21T04:22:31.243Z,59.95
2023-03-21T04:23:29.298Z,59.70
2023-03-21T04:24:26.695Z,59.79
2023-03-21T04:25:32.670Z,60.02
2023-03-21T04:26:33.094Z,60.13
2023-03-21T04:27:30.489Z,59.71
2023-03-21T04:28:27.138Z,58.91
2023-03-21T04:29:24.190Z,58.72
2023-03-21T04:30:20.936Z,58.36
2023-03-21T04:31:25.505Z,58.53
2023-03-21T04:32:24.666Z,59.00
2023-03-21T04:33:21.256Z,58.89
2023-03-21T04:34:17.944Z,59.54
2023-03-21T04:35:14.563Z,60.02
2023-03-21T04:36:24.822Z,60.40
2023-03-21T04:37:23.547Z,60.87
2023-03-21T04:38:20.100Z,60.01
2023-03-21T04:39:17.654Z,59.51
2023-03-21T04:40:17.863Z,59.36
2023-03-21T04:41:14.738Z,59.44
2023-03-21T04:42:11.331Z,59.17
2023-03-21T04:43:07.895Z,58.84
2023-03-21T04:44:04.569Z,58.68
2023-03-21T04:45:01.893Z,58.91
2023-03-21T04:45:58.588Z,59.35
2023-03-21T04:46:55.271Z,58.50
2023-03-21T04:47:51.895Z,59.24
2023-03-21T04:48:48.994Z,60.32
2023-03-21T04:49:48.074Z,59.98
2023-03-21T04:50:45.394Z,59.93
2023-03-21T04:51:44.054Z,59.60
2023-03-21T04:52:40.797Z,58.59
2023-03-21T04:53:38.448Z,58.88
2023-03-21T04:54:35.558Z,59.20
2023-03-21T04:55:32.472Z,59.06
2023-03-21T04:56:34.214Z,58.25
2023-03-21T04:57:31.130Z,58.21
2023-03-21T04:58:27.707Z,58.63
2023-03-21T04:59:24.353Z,59.56
2023-03-21T05:00:21.160Z,59.08
2023-03-21T05:01:20.812Z,59.34
2023-03-21T05:02:17.449Z,59.90
2023-03-21T05:03:19.785Z,59.05
2023-03-21T05:04:17.018Z,57.98
2023-03-21T05:05:13.755Z,58.28
2023-03-21T05:06:10.860Z,58.54
2023-03-21T05:07:07.956Z,57.84
2023-03-21T05:08:06.371Z,57.24
2023-03-21T05:09:07.265Z,57.58
2023-03-21T05:10:05.140Z,58.10
2023-03-21T05:11:02.890Z,59.49
2023-03-21T05:11:59.465Z,59.33
2023-03-21T05:12:56.160Z,59.41
2023-03-21T05:13:53.128Z,59.95
2023-03-21T05:14:49.742Z,60.55
2023-03-21T05:15:46.389Z,59.92
2023-03-21T05:16:56.167Z,58.54
2023-03-21T05:17:52.864Z,58.38
2023-03-21T05:18:50.738Z,59.24
2023-03-21T05:19:47.358Z,58.68
2023-03-21T05:20:43.964Z,59.17
2023-03-21T05:21:45.163Z,59.37
2023-03-21T05:22:42.590Z,58.92
2023-03-21T05:23:42.181Z,58.66
2023-03-21T05:24:42.088Z,58.23
2023-03-21T05:25:40.321Z,58.29
2023-03-21T05:26:37.142Z,57.97
2023-03-21T05:27:34.261Z,57.77
2023-03-21T05:28:31.815Z,57.24
2023-03-21T05:29:31.329Z,57.98
2023-03-21T05:30:28.763Z,57.58
2023-03-21T05:31:25.480Z,56.82
2023-03-21T05:32:22.077Z,56.46
2023-03-21T05:33:18.919Z,56.21
2023-03-21T05:34:15.687Z,56.78
2023-03-21T05:35:13.196Z,56.50
2023-03-21T05:36:10.742Z,56.66
2023-03-21T05:37:07.371Z,56.48
2023-03-21T05:38:03.985Z,56.82
2023-03-21T05:39:01.952Z,56.43
2023-03-21T05:39:58.637Z,56.05
2023-03-21T05:40:55.495Z,55.93
2023-03-21T05:41:52.144Z,55.86
2023-03-21T05:42:49.176Z,56.73
2023-03-21T05:43:45.913Z,56.42
2023-03-21T05:44:42.576Z,56.51
2023-03-21T05:45:39.294Z,57.34
2023-03-21T05:46:36.098Z,56.38
2023-03-21T05:47:32.869Z,55.74
2023-03-21T05:48:29.500Z,55.18
2023-03-21T05:49:27.056Z,56.59
2023-03-21T05:50:23.791Z,56.76
2023-03-21T05:51:20.616Z,57.34
2023-03-21T05:52:17.361Z,57.72
2023-03-21T05:53:14.030Z,57.23
2023-03-21T05:54:16.631Z,57.64
2023-03-21T05:55:13.362Z,58.31
2023-03-21T05:56:10.407Z,58.64
2023-03-21T05:57:07.829Z,59.05
2023-03-21T05:58:04.710Z,58.95
2023-03-21T05:59:01.444Z,59.03
2023-03-21T05:59:58.159Z,58.63
2023-03-21T06:00:55.040Z,58.49
2023-03-21T06:01:51.664Z,59.11
2023-03-21T06:02:48.255Z,59.81
2023-03-21T06:03:44.957Z,59.47
2023-03-21T06:04:41.647Z,60.38
2023-03-21T06:05:38.596Z,59.50
2023-03-21T06:06:35.453Z,58.60
2023-03-21T06:07:33.012Z,58.40
2023-03-21T06:08:30.481Z,56.80
2023-03-21T06:09:27.214Z,56.37
2023-03-21T06:10:23.917Z,56.20
2023-03-21T06:11:26.725Z,56.17
2023-03-21T06:12:23.581Z,55.61
2023-03-21T06:13:20.159Z,55.62
2023-03-21T06:14:17.641Z,55.75
2023-03-21T06:15:14.553Z,54.62
2023-03-21T06:16:11.234Z,55.35
2023-03-21T06:17:07.905Z,55.22
2023-03-21T06:18:04.604Z,55.17
2023-03-21T06:19:01.159Z,55.17
2023-03-21T06:19:58.495Z,56.06
2023-03-21T06:20:55.137Z,55.65
2023-03-21T06:21:51.906Z,56.19
2023-03-21T06:22:48.525Z,54.78
2023-03-21T06:23:45.318Z,53.41
2023-03-21T06:24:41.918Z,53.10
2023-03-21T06:25:38.606Z,53.48
2023-03-21T06:26:35.594Z,54.04
2023-03-21T06:27:32.227Z,54.04
2023-03-21T06:28:28.958Z,54.59
2023-03-21T06:29:25.696Z,54.83
2023-03-21T06:30:22.438Z,54.29
2023-03-21T06:31:22.633Z,54.40
2023-03-21T06:32:19.797Z,54.39
2023-03-21T06:33:16.427Z,54.23
2023-03-21T06:34:13.524Z,54.91
2023-03-21T06:35:10.319Z,54.76
2023-03-21T06:36:07.341Z,53.92
2023-03-21T06:37:04.468Z,54.12
2023-03-21T06:38:01.274Z,55.08
2023-03-21T06:38:57.890Z,55.49
2023-03-21T06:39:55.553Z,55.07
2023-03-21T06:40:52.732Z,54.80
2023-03-21T06:41:49.380Z,54.31
2023-03-21T06:42:45.937Z,54.56
2023-03-21T06:43:43.239Z,55.04
2023-03-21T06:44:40.146Z,53.97
2023-03-21T06:45:37.118Z,53.77
2023-03-21T06:46:33.867Z,54.69
2023-03-21T06:47:30.724Z,54.48
2023-03-21T06:48:28.161Z,54.94
2023-03-21T06:49:24.941Z,53.44
2023-03-21T06:50:21.938Z,52.98
2023-03-21T06:51:19.996Z,52.94
2023-03-21T06:52:16.619Z,53.70
2023-03-21T06:53:13.220Z,53.60
2023-03-21T06:54:10.402Z,52.96
2023-03-21T06:55:07.445Z,53.53
2023-03-21T06:56:04.251Z,53.23
2023-03-21T06:57:00.943Z,52.46
2023-03-21T06:57:57.664Z,52.72
2023-03-21T06:58:54.340Z,52.92
2023-03-21T06:59:51.191Z,52.68
2023-03-21T07:00:48.213Z,53.25
2023-03-21T07:01:44.893Z,53.29
2023-03-21T07:02:41.877Z,53.40
2023-03-21T07:03:39.582Z,53.26
2023-03-21T07:04:36.183Z,52.20
2023-03-21T07:05:32.762Z,52.92
2023-03-21T07:06:29.381Z,52.69
2023-03-21T07:07:26.427Z,53.22
2023-03-21T07:08:23.075Z,52.52
2023-03-21T07:09:21.718Z,51.53
2023-03-21T07:10:18.634Z,52.04
2023-03-21T07:11:15.483Z,52.51
2023-03-21T07:12:12.174Z,52.47
2023-03-21T07:13:08.784Z,52.77
2023-03-21T07:14:06.535Z,51.78
2023-03-21T07:15:04.503Z,51.51
2023-03-21T07:16:01.136Z,52.23
2023-03-21T07:16:57.812Z,53.32
2023-03-21T07:17:54.356Z,53.48
2023-03-21T07:18:51.878Z,53.42
2023-03-21T07:19:48.552Z,53.30
2023-03-21T07:20:51.171Z,53.22
2023-03-21T07:21:47.850Z,53.21
2023-03-21T07:22:44.720Z,54.14
2023-03-21T07:23:41.505Z,53.46
2023-03-21T07:24:38.096Z,53.18
2023-03-21T07:25:34.863Z,53.65
2023-03-21T07:26:31.466Z,53.01
2023-03-21T07:27:28.086Z,53.23
2023-03-21T07:28:25.118Z,53.12
2023-03-21T07:29:23.235Z,52.72
2023-03-21T07:30:21.584Z,52.51
2023-03-21T07:31:19.531Z,52.97
2023-03-21T07:32:16.610Z,52.39
2023-03-21T07:33:13.229Z,51.80
2023-03-21T07:34:09.840Z,52.02
2023-03-21T07:35:08.702Z,52.70
2023-03-21T07:36:10.918Z,53.51
2023-03-21T07:37:07.874Z,53.44
2023-03-21T07:38:05.417Z,53.44
2023-03-21T07:39:02.011Z,51.94
2023-03-21T07:39:58.737Z,51.38
2023-03-21T07:40:55.466Z,50.69
2023-03-21T07:41:52.134Z,49.97
2023-03-21T07:42:50.875Z,50.16
2023-03-21T07:43:47.566Z,50.53
2023-03-21T07:44:44.351Z,51.70
2023-03-21T07:45:42.741Z,52.53
2023-03-21T07:46:39.407Z,52.62
2023-03-21T07:47:36.084Z,51.84
2023-03-21T07:48:32.801Z,50.43
2023-03-21T07:49:29.656Z,50.91
2023-03-21T07:50:26.430Z,51.10
2023-03-21T07:51:23.134Z,51.43
2023-03-21T07:52:22.811Z,51.62
2023-03-21T07:53:20.185Z,51.53
2023-03-21T07:54:19.336Z,51.08
2023-03-21T07:55:19.725Z,51.14
2023-03-21T07:56:16.337Z,51.78
2023-03-21T07:57:13.802Z,51.94
2023-03-21T07:58:10.528Z,52.13
2023-03-21T07:59:08.205Z,51.87
2023-03-21T08:00:06.800Z,51.80
2023-03-21T08:01:03.376Z,51.62
2023-03-21T08:02:00.004Z,51.96
2023-03-21T08:02:59.104Z,51.23
2023-03-21T08:03:55.974Z,51.37
2023-03-21T08:04:52.781Z,50.27
2023-03-21T08:05:49.780Z,49.12
2023-03-21T08:06:46.402Z,49.60
2023-03-21T08:07:43.008Z,49.67
2023-03-21T08:08:40.332Z,51.10
2023-03-21T08:09:37.381Z,51.01
2023-03-21T08:10:34.481Z,50.73
2023-03-21T08:11:33.948Z,50.80
2023-03-21T08:12:30.749Z,50.97
2023-03-21T08:13:27.811Z,50.29
2023-03-21T08:14:24.404Z,48.82
2023-03-21T08:15:21.664Z,49.04
2023-03-21T08:16:18.628Z,48.88
2023-03-21T08:17:15.400Z,50.00
2023-03-21T08:18:12.026Z,49.36
2023-03-21T08:19:08.665Z,50.03
2023-03-21T08:20:08.376Z,49.74
2023-03-21T08:21:05.278Z,49.39
2023-03-21T08:22:02.338Z,49.69
2023-03-21T08:22:58.897Z,47.27
2023-03-21T08:23:55.730Z,47.98
2023-03-21T08:24:52.572Z,48.53
2023-03-21T08:25:55.961Z,47.51
2023-03-21T08:26:52.560Z,46.39
2023-03-21T08:27:51.209Z,45.86
2023-03-21T08:28:47.892Z,45.50
2023-03-21T08:29:44.624Z,46.79
2023-03-21T08:30:41.404Z,47.05
2023-03-21T08:31:40.202Z,46.08
2023-03-21T08:32:38.726Z,45.62
2023-03-21T08:33:35.508Z,45.92
2023-03-21T08:34:32.376Z,46.06
2023-03-21T08:35:29.776Z,44.88
2023-03-21T08:36:26.623Z,46.03
2023-03-21T08:37:23.289Z,46.74
2023-03-21T08:38:19.912Z,47.16
2023-03-21T08:39:16.552Z,46.89
2023-03-21T08:40:16.131Z,46.71
2023-03-21T08:41:12.808Z,45.53
2023-03-21T08:42:09.376Z,44.27
2023-03-21T08:43:06.242Z,44.28
2023-03-21T08:44:05.847Z,45.17
2023-03-21T08:45:02.593Z,46.30
2023-03-21T08:45:59.371Z,47.66
2023-03-21T08:46:56.149Z,45.38
2023-03-21T08:47:53.817Z,45.94
2023-03-21T08:48:50.431Z,46.21
2023-03-21T08:49:47.143Z,46.27
2023-03-21T08:50:43.763Z,46.43
2023-03-21T08:51:41.280Z,46.11
2023-03-21T08:52:37.995Z,46.11
2023-03-21T08:53:34.725Z,45.85
2023-03-21T08:54:31.477Z,46.29
2023-03-21T08:55:28.226Z,45.70
2023-03-21T08:56:25.426Z,45.54
2023-03-21T08:57:22.092Z,45.69
2023-03-21T08:58:18.745Z,45.96
2023-03-21T08:59:15.725Z,45.15
2023-03-21T09:00:18.332Z,45.36
2023-03-21T09:01:15.659Z,46.34
2023-03-21T09:02:15.076Z,46.17
2023-03-21T09:03:11.825Z,45.82
2023-03-21T09:04:11.116Z,45.82
2023-03-21T09:05:08.772Z,46.13
2023-03-21T09:06:05.525Z,46.18
2023-03-21T09:07:04.865Z,46.45
2023-03-21T09:08:01.734Z,46.50
2023-03-21T09:08:58.480Z,46.70
2023-03-21T09:10:14.896Z,47.03
2023-03-21T09:11:11.885Z,46.17
2023-03-21T09:12:08.791Z,47.63
2023-03-21T09:13:05.481Z,45.50
2023-03-21T09:14:02.130Z,45.02
2023-03-21T09:14:58.957Z,44.90
2023-03-21T09:15:58.293Z,44.74
2023-03-21T09:16:54.990Z,44.07
2023-03-21T09:17:57.086Z,44.33
2023-03-21T09:18:56.933Z,45.69
2023-03-21T09:19:53.581Z,45.59
2023-03-21T09:20:50.614Z,45.38
2023-03-21T09:21:47.864Z,44.24
2023-03-21T09:22:49.084Z,44.65
2023-03-21T09:23:46.383Z,44.03
2023-03-21T09:24:46.048Z,44.22
2023-03-21T09:25:45.708Z,45.41
2023-03-21T09:26:44.049Z,44.97
2023-03-21T09:27:42.694Z,44.40
2023-03-21T09:28:40.591Z,43.97
2023-03-21T09:29:37.318Z,45.64
2023-03-21T09:30:36.862Z,45.90
2023-03-21T09:31:33.501Z,45.98
2023-03-21T09:32:30.629Z,46.53
2023-03-21T09:33:28.362Z,45.18
2023-03-21T09:34:26.395Z,44.68
2023-03-21T09:35:24.867Z,45.06
2023-03-21T09:36:25.020Z,45.10
2023-03-21T09:37:22.350Z,44.79
2023-03-21T09:38:19.405Z,44.19
2023-03-21T09:39:16.802Z,43.78
2023-03-21T09:40:31.068Z,44.71
2023-03-21T09:41:38.868Z,43.70
2023-03-21T09:42:49.122Z,42.70
2023-03-21T09:43:53.871Z,43.21
2023-03-21T09:45:01.861Z,43.55
2023-03-21T09:46:24.046Z,43.90
2023-03-21T09:47:37.726Z,44.61
2023-03-21T09:48:54.375Z,43.67
2023-03-21T09:50:07.741Z,43.68
2023-03-21T09:51:18.038Z,43.23
2023-03-21T09:52:57.135Z,42.90
2023-03-21T09:53:57.719Z,43.66
2023-03-21T09:54:55.741Z,43.89
2023-03-21T09:55:54.158Z,43.79
2023-03-21T09:56:54.815Z,43.10
2023-03-21T09:58:02.969Z,43.12
2023-03-21T09:59:01.577Z,43.66
2023-03-21T10:00:08.019Z,42.59
2023-03-21T10:01:41.736Z,44.26
2023-03-21T10:02:41.667Z,43.69
2023-03-21T10:03:38.458Z,44.25
2023-03-21T10:04:37.843Z,44.29
2023-03-21T10:05:40.559Z,44.16
2023-03-21T10:06:41.326Z,43.01
2023-03-21T10:07:42.498Z,43.23
2023-03-21T10:08:42.089Z,43.70
2023-03-21T10:09:41.710Z,43.73
2023-03-21T10:10:45.477Z,44.65
2023-03-21T10:11:50.525Z,43.33
2023-03-21T10:12:49.376Z,43.05
2023-03-21T10:14:12.702Z,43.77
2023-03-21T10:15:16.303Z,43.10
2023-03-21T10:16:25.323Z,42.74
2023-03-21T10:17:43.195Z,43.27
2023-03-21T10:18:42.916Z,43.42
2023-03-21T10:19:39.861Z,44.30
2023-03-21T10:20:38.858Z,44.07
2023-03-21T10:22:58.208Z,45.10
2023-03-21T10:23:57.482Z,44.58
2023-03-21T10:24:54.140Z,44.42
2023-03-21T10:25:58.454Z,45.19
2023-03-21T10:26:56.355Z,44.49
2023-03-21T10:27:53.114Z,44.72
2023-03-21T10:28:53.341Z,44.65
2023-03-21T10:29:53.322Z,45.21
2023-03-21T10:30:56.985Z,44.41
2023-03-21T10:31:54.729Z,45.63
2023-03-21T10:32:51.491Z,44.72
2023-03-21T10:33:50.696Z,43.71
2023-03-21T10:36:06.976Z,43.02
2023-03-21T10:37:05.755Z,43.54
2023-03-21T10:38:03.582Z,43.84
2023-03-21T10:39:07.951Z,42.14
2023-03-21T10:40:07.693Z,43.21
2023-03-21T10:41:04.397Z,42.11
2023-03-21T10:42:01.344Z,42.32
2023-03-21T10:43:16.710Z,42.97
2023-03-21T10:44:16.860Z,41.95
2023-03-21T10:45:19.531Z,41.70
2023-03-21T10:46:24.270Z,41.76
2023-03-21T10:47:23.150Z,42.15
2023-03-21T10:48:21.089Z,42.65
2023-03-21T10:49:19.053Z,41.84
2023-03-21T10:50:20.451Z,41.48
2023-03-21T10:51:20.875Z,39.65
2023-03-21T10:52:23.317Z,40.14
2023-03-21T10:53:42.941Z,40.06
2023-03-21T10:54:40.063Z,39.90
2023-03-21T10:55:41.939Z,40.04
2023-03-21T10:56:43.925Z,40.49
2023-03-21T10:57:40.846Z,40.03
2023-03-21T10:58:49.147Z,40.69
2023-03-21T10:59:51.590Z,39.57
2023-03-21T11:00:48.434Z,39.96
2023-03-21T11:01:49.876Z,40.27
2023-03-21T11:02:50.318Z,39.50
2023-03-21T11:03:47.120Z,40.05
2023-03-21T11:04:45.000Z,40.02
2023-03-21T11:05:42.557Z,40.40
2023-03-21T11:06:41.424Z,40.95
2023-03-21T11:07:38.131Z,40.59
2023-03-21T11:08:41.918Z,39.86
2023-03-21T11:09:45.145Z,40.48
2023-03-21T11:10:59.650Z,41.22
2023-03-21T11:12:09.307Z,41.83
2023-03-21T11:13:16.844Z,40.92
2023-03-21T11:14:41.146Z,40.45
2023-03-21T11:15:38.157Z,41.06
2023-03-21T11:16:43.806Z,40.68
2023-03-21T11:17:40.743Z,40.75
2023-03-21T11:18:43.010Z,41.26
2023-03-21T11:19:39.799Z,40.94
2023-03-21T11:20:45.162Z,40.37
2023-03-21T11:21:42.614Z,40.65
2023-03-21T11:22:42.576Z,40.42
2023-03-21T11:23:44.640Z,39.98
2023-03-21T11:24:47.166Z,40.73
2023-03-21T11:25:43.822Z,40.33
2023-03-21T11:26:43.627Z,39.36
2023-03-21T11:27:49.103Z,39.64
2023-03-21T11:28:46.704Z,39.82
2023-03-21T11:29:51.489Z,38.60
2023-03-21T11:30:59.789Z,39.31
2023-03-21T11:32:19.668Z,39.63
2023-03-21T11:33:19.637Z,38.51
2023-03-21T11:34:47.714Z,37.81
2023-03-21T11:35:44.418Z,39.25
2023-03-21T11:36:41.613Z,39.13
2023-03-21T11:37:46.082Z,38.78
2023-03-21T11:38:42.645Z,38.67
2023-03-21T11:39:43.760Z,37.65
2023-03-21T11:40:53.741Z,37.90
2023-03-21T11:41:51.952Z,37.71
2023-03-21T11:42:53.913Z,37.39
2023-03-21T11:43:54.696Z,36.40
2023-03-21T11:45:00.579Z,37.20
2023-03-21T11:46:06.191Z,37.95
2023-03-21T11:47:03.093Z,36.15
2023-03-21T11:48:02.338Z,36.66
2023-03-21T11:49:00.769Z,35.60
2023-03-21T11:50:04.553Z,36.32
2023-03-21T11:51:16.167Z,35.62
2023-03-21T11:52:32.365Z,36.62
2023-03-21T11:54:10.041Z,36.47
2023-03-21T11:55:18.116Z,36.82
2023-03-21T11:56:28.155Z,35.54
2023-03-21T11:57:32.160Z,36.10
2023-03-21T11:58:32.909Z,35.91
2023-03-21T11:59:58.190Z,34.74
2023-03-21T12:01:02.033Z,34.53
2023-03-21T12:02:27.662Z,35.02
2023-03-21T12:04:08.877Z,34.45
2023-03-21T12:05:34.527Z,35.90
2023-03-21T12:06:38.531Z,35.62
2023-03-21T12:07:45.375Z,34.77
2023-03-21T12:09:00.802Z,34.97
2023-03-21T12:10:12.379Z,36.84
2023-03-21T12:11:20.945Z,35.94
2023-03-21T12:12:38.725Z,35.52
2023-03-21T12:13:50.386Z,35.23
2023-03-21T12:15:01.309Z,33.42
2023-03-21T12:16:05.852Z,32.74
2023-03-21T12:17:08.531Z,31.72
2023-03-21T12:18:23.359Z,32.98
2023-03-21T12:19:24.382Z,33.71
2023-03-21T12:20:32.402Z,34.53
2023-03-21T12:21:47.026Z,35.31
2023-03-21T12:23:18.036Z,35.10
2023-03-21T12:24:26.736Z,35.04
2023-03-21T12:25:35.489Z,34.23
2023-03-21T12:27:06.339Z,35.37
2023-03-21T12:28:33.530Z,35.69
2023-03-21T12:29:42.283Z,34.80
2023-03-21T12:31:10.926Z,34.16
2023-03-21T12:32:34.449Z,34.83
2023-03-21T12:33:56.391Z,34.24
2023-03-21T12:35:15.342Z,34.83
2023-03-21T12:36:27.237Z,34.35
2023-03-21T12:38:05.717Z,34.30
2023-03-21T12:39:21.324Z,35.45
2023-03-21T12:40:46.660Z,34.68
2023-03-21T12:42:01.583Z,34.27
2023-03-21T12:43:20.728Z,35.11
2023-03-21T12:44:24.433Z,34.74
2023-03-21T12:45:27.521Z,34.04
2023-03-21T12:46:58.727Z,34.34
2023-03-21T12:48:15.582Z,34.36
2023-03-21T12:49:48.041Z,34.74
2023-03-21T12:50:47.131Z,35.04
2023-03-21T12:51:47.927Z,36.13
2023-03-21T12:53:12.904Z,34.69
2023-03-21T12:54:20.952Z,34.66
2023-03-21T12:55:25.752Z,34.62
2023-03-21T12:56:37.035Z,33.17
2023-03-21T12:57:33.617Z,33.72
2023-03-21T12:58:36.018Z,33.61
2023-03-21T12:59:47.535Z,33.33
2023-03-21T13:00:51.458Z,32.88
2023-03-21T13:01:53.535Z,33.75
2023-03-21T13:02:56.055Z,33.83
2023-03-21T13:04:12.828Z,33.80
2023-03-21T13:05:28.395Z,34.13
2023-03-21T13:06:27.190Z,33.98
2023-03-21T13:07:25.834Z,33.55
2023-03-21T13:08:22.452Z,33.33
2023-03-21T13:09:37.707Z,32.87
2023-03-21T13:10:34.847Z,32.82
2023-03-21T13:11:32.398Z,33.69
2023-03-21T13:12:48.843Z,34.13
2023-03-21T13:14:21.703Z,33.11
2023-03-21T13:15:24.379Z,33.86
2023-03-21T13:16:30.379Z,33.22
2023-03-21T13:17:38.368Z,34.08
2023-03-21T13:19:02.846Z,34.33
2023-03-21T13:20:13.201Z,33.22
2023-03-21T13:21:17.995Z,34.04
2023-03-21T13:22:29.982Z,34.56